Terminal Aerodrome Forecast
Issued by NWS Wichita, KS

Home | Current Version | Previous Version | Text Only | Print | Product List | Glossary On
Versions: 1 2 3 4 5 6 7 8 9 10 11 12 13 14 15 16 17 18 19 20 21 22 23 24 25
001
FTUS43 KICT 261250 AAA
TAFICT
TAF AMD
KICT 261250Z 2613/2712 VRB03KT 5SM BR SCT003 OVC006
      TEMPO 2613/2615 3SM BR OVC003
     FM261600 11007KT P6SM SCT008 BKN012
     FM261800 11012KT P6SM SCT030 BKN150
     FM262100 11014KT P6SM VCTS BKN050CB
     FM270000 06015G22KT P6SM VCTS SCT015 BKN030CB
     FM270600 02015G22KT P6SM VCSH SCT009 BKN015=

USA.gov is the U.S. government's official web portal to all federal, state and local government web resources and services.